createdAt,value
2023-02-16T00:00:30.117Z,100.10
2023-02-16T00:02:57.833Z,82.38
2023-02-16T00:05:26.531Z,89.17
2023-02-16T00:07:54.880Z,92.07
2023-02-16T00:10:23.055Z,92.60
2023-02-16T00:13:08.979Z,90.77
2023-02-16T00:15:36.254Z,83.40
2023-02-16T00:18:12.597Z,89.83
2023-02-16T00:20:39.747Z,93.47
2023-02-16T00:23:06.961Z,80.83
2023-02-16T00:25:34.384Z,88.07
2023-02-16T00:28:05.712Z,78.93
2023-02-16T00:30:33.126Z,81.73
2023-02-16T00:33:01.439Z,83.47
2023-02-16T00:35:29.319Z,83.73
2023-02-16T00:37:56.501Z,74.63
2023-02-16T00:40:24.275Z,75.50
2023-02-16T00:42:51.555Z,72.03
2023-02-16T00:45:21.510Z,86.37
2023-02-16T00:47:51.837Z,72.82
2023-02-16T00:50:32.597Z,86.45
2023-02-16T00:55:36.337Z,82.10
2023-02-16T00:58:18.628Z,89.60
2023-02-16T01:00:54.511Z,83.30
2023-02-16T01:03:26.628Z,98.70
2023-02-16T01:06:14.808Z,93.73
2023-02-16T01:09:00.902Z,86.43
2023-02-16T01:11:29.010Z,100.73
2023-02-16T01:13:57.828Z,99.73
2023-02-16T01:16:52.108Z,104.97
2023-02-16T01:19:20.985Z,99.93
2023-02-16T01:21:48.130Z,87.93
2023-02-16T01:24:18.821Z,103.13
2023-02-16T01:26:50.767Z,99.67
2023-02-16T01:29:21.431Z,91.30
2023-02-16T01:31:50.575Z,81.03
2023-02-16T01:34:17.818Z,96.50
2023-02-16T01:36:48.138Z,82.07
2023-02-16T01:39:19.039Z,101.03
2023-02-16T01:42:41.406Z,94.33
2023-02-16T01:45:19.949Z,81.77
2023-02-16T01:48:13.985Z,83.33
2023-02-16T01:51:15.304Z,90.97
2023-02-16T01:54:03.242Z,83.80
2023-02-16T01:56:47.861Z,77.73
2023-02-16T01:59:33.365Z,81.43
2023-02-16T02:02:04.083Z,75.27
2023-02-16T02:07:55.476Z,81.77
2023-02-16T02:11:02.016Z,78.93
2023-02-16T02:13:35.996Z,88.80
2023-02-16T02:16:05.692Z,84.93
2023-02-16T02:18:34.243Z,82.50
2023-02-16T02:21:42.815Z,84.07
2023-02-16T02:24:36.236Z,73.47
2023-02-16T02:27:27.972Z,85.67
2023-02-16T02:30:20.406Z,82.63
2023-02-16T02:33:09.575Z,82.07
2023-02-16T02:36:20.213Z,93.03
2023-02-16T02:39:04.189Z,86.85
2023-02-16T02:42:07.895Z,79.50
2023-02-16T02:45:31.979Z,80.50
2023-02-16T02:47:59.426Z,77.23
2023-02-16T02:50:32.766Z,83.47
2023-02-16T02:53:13.952Z,68.97
2023-02-16T02:56:08.154Z,72.47
2023-02-16T02:58:57.234Z,72.97
2023-02-16T03:01:25.679Z,66.40
2023-02-16T03:03:57.526Z,77.50
2023-02-16T03:06:33.997Z,74.80
2023-02-16T03:09:08.353Z,73.27
2023-02-16T03:11:54.451Z,79.67
2023-02-16T03:14:34.411Z,73.73
2023-02-16T03:17:29.048Z,70.22
2023-02-16T03:20:17.598Z,70.37
2023-02-16T03:23:04.608Z,62.30
2023-02-16T03:25:57.333Z,63.30
2023-02-16T03:28:47.510Z,66.87
2023-02-16T03:31:24.264Z,60.55
2023-02-16T03:33:54.851Z,65.87
2023-02-16T03:36:31.504Z,66.55
2023-02-16T03:38:59.756Z,72.87
2023-02-16T03:41:31.563Z,74.00
2023-02-16T03:43:59.287Z,81.67
2023-02-16T03:46:26.583Z,80.17
2023-02-16T03:48:53.827Z,71.07
2023-02-16T03:51:21.115Z,78.17
2023-02-16T03:53:48.417Z,63.90
2023-02-16T03:56:15.785Z,61.50
2023-02-16T03:58:43.107Z,61.63
2023-02-16T04:01:10.214Z,68.33
2023-02-16T04:03:37.415Z,63.53
2023-02-16T04:06:04.850Z,67.87
2023-02-16T04:08:32.134Z,78.87
2023-02-16T04:11:00.473Z,77.67
2023-02-16T04:13:27.662Z,82.07
2023-02-16T04:15:54.888Z,76.73
2023-02-16T04:18:22.132Z,63.57
2023-02-16T04:20:49.387Z,69.23
2023-02-16T04:23:16.548Z,70.23
2023-02-16T04:25:43.835Z,70.83
2023-02-16T04:28:11.244Z,63.17
2023-02-16T04:30:38.612Z,66.37
2023-02-16T04:33:05.922Z,66.83
2023-02-16T04:35:33.145Z,71.57
2023-02-16T04:38:00.346Z,66.40
2023-02-16T04:40:27.672Z,64.63
2023-02-16T04:42:54.897Z,65.80
2023-02-16T04:45:22.201Z,67.53
2023-02-16T04:47:49.414Z,64.67
2023-02-16T04:50:16.863Z,65.17
2023-02-16T04:52:44.092Z,69.27
2023-02-16T04:55:11.390Z,65.97
2023-02-16T04:57:40.669Z,72.70
2023-02-16T05:00:10.248Z,66.87
2023-02-16T05:02:37.551Z,62.67
2023-02-16T05:05:04.874Z,66.03
2023-02-16T05:07:32.137Z,59.93
2023-02-16T05:09:59.422Z,51.67
2023-02-16T05:12:45.566Z,66.57
2023-02-16T05:15:12.947Z,68.07
2023-02-16T05:17:40.204Z,61.50
2023-02-16T05:20:08.055Z,62.57
2023-02-16T05:22:35.997Z,59.50
2023-02-16T05:25:03.334Z,62.63
2023-02-16T05:27:31.749Z,56.83
2023-02-16T05:29:59.550Z,60.73
2023-02-16T05:32:27.055Z,62.73
2023-02-16T05:34:54.330Z,63.47
2023-02-16T05:37:21.751Z,62.73
2023-02-16T05:39:48.887Z,67.70
2023-02-16T05:42:16.168Z,75.43
2023-02-16T05:44:43.342Z,71.70
2023-02-16T05:47:11.369Z,67.87
2023-02-16T05:49:38.656Z,67.07
2023-02-16T05:52:05.997Z,65.77
2023-02-16T05:54:33.142Z,71.37
2023-02-16T05:57:00.448Z,62.87
2023-02-16T05:59:27.696Z,64.70
2023-02-16T06:01:55.031Z,66.47
2023-02-16T06:04:23.823Z,62.80
2023-02-16T06:06:51.001Z,56.67
2023-02-16T06:09:18.275Z,56.90
2023-02-16T06:11:45.587Z,62.13
2023-02-16T06:14:15.742Z,60.00
2023-02-16T06:16:46.178Z,63.90
2023-02-16T06:19:14.797Z,66.82
2023-02-16T06:21:42.542Z,72.97
2023-02-16T06:24:12.333Z,58.73
2023-02-16T06:26:40.119Z,70.97
2023-02-16T06:29:08.133Z,51.90
2023-02-16T06:31:36.782Z,58.33
2023-02-16T06:34:05.348Z,47.37
2023-02-16T06:36:34.065Z,52.50
2023-02-16T06:39:01.453Z,44.07
2023-02-16T06:41:32.076Z,37.77
2023-02-16T06:44:06.554Z,40.37
2023-02-16T06:46:34.384Z,36.77
2023-02-16T06:49:01.870Z,33.97
2023-02-16T06:51:29.344Z,36.60
2023-02-16T06:53:56.921Z,36.37
2023-02-16T06:56:24.724Z,36.70
2023-02-16T06:58:51.917Z,39.33
2023-02-16T07:01:23.213Z,37.90
2023-02-16T07:03:54.902Z,43.10
2023-02-16T07:06:27.521Z,39.63
2023-02-16T07:08:55.124Z,39.00
2023-02-16T07:11:22.783Z,39.43
2023-02-16T07:13:50.904Z,35.57
2023-02-16T07:16:18.331Z,44.13
2023-02-16T07:18:46.627Z,37.23
2023-02-16T07:21:14.255Z,37.27
2023-02-16T07:23:41.710Z,30.60
2023-02-16T07:26:09.192Z,32.00
2023-02-16T07:28:36.500Z,30.83
2023-02-16T07:31:12.057Z,34.58
2023-02-16T07:33:40.140Z,28.38
2023-02-16T07:36:09.010Z,32.08
2023-02-16T07:38:37.076Z,31.00
2023-02-16T07:41:08.623Z,35.03
2023-02-16T07:43:38.002Z,35.08
2023-02-16T07:46:05.619Z,29.40
2023-02-16T07:48:32.960Z,28.95
2023-02-16T07:51:00.366Z,25.33
2023-02-16T07:53:27.620Z,26.10
2023-02-16T07:55:54.975Z,25.58
2023-02-16T07:58:28.235Z,27.27
2023-02-16T08:01:09.908Z,24.92
2023-02-16T08:03:38.106Z,26.40
2023-02-16T08:06:06.800Z,22.70
2023-02-16T08:08:34.369Z,24.75
2023-02-16T08:11:18.714Z,22.00
2023-02-16T08:13:46.782Z,22.23
2023-02-16T08:16:24.549Z,22.05
2023-02-16T08:18:52.662Z,23.17
2023-02-16T08:21:25.859Z,21.50
2023-02-16T08:24:00.177Z,23.08
2023-02-16T08:26:34.270Z,21.92
2023-02-16T08:29:01.988Z,21.02
2023-02-16T08:31:31.981Z,23.08
2023-02-16T08:34:03.535Z,22.33
2023-02-16T08:36:38.303Z,23.08
2023-02-16T08:39:15.018Z,24.77
2023-02-16T08:41:44.587Z,25.60
2023-02-16T08:44:12.735Z,20.97
2023-02-16T08:46:42.844Z,23.73
2023-02-16T08:49:11.098Z,25.17
2023-02-16T08:51:44.527Z,20.23
2023-02-16T08:54:18.729Z,22.40
2023-02-16T08:56:48.141Z,22.77
2023-02-16T08:59:18.255Z,21.53
2023-02-16T09:01:46.458Z,24.10
2023-02-16T09:04:15.608Z,20.75
2023-02-16T09:06:45.732Z,24.98
2023-02-16T09:09:13.547Z,21.92
2023-02-16T09:11:41.196Z,20.33
2023-02-16T09:14:09.373Z,24.88
2023-02-16T09:16:39.698Z,23.38
2023-02-16T09:21:34.781Z,24.38
2023-02-16T09:24:04.492Z,24.70
2023-02-16T09:26:38.714Z,24.23
2023-02-16T09:29:07.208Z,22.38
2023-02-16T09:31:37.255Z,24.52
2023-02-16T09:34:16.684Z,24.00
2023-02-16T09:36:44.884Z,27.00
2023-02-16T09:39:12.447Z,27.65
2023-02-16T09:41:48.631Z,23.17
2023-02-16T09:44:53.171Z,26.35
2023-02-16T09:47:26.237Z,25.05
2023-02-16T09:49:56.519Z,21.63
2023-02-16T09:52:40.531Z,23.15
2023-02-16T09:55:15.185Z,23.35
2023-02-16T09:58:19.652Z,23.17
2023-02-16T10:01:31.916Z,23.33
2023-02-16T10:04:46.049Z,22.95
2023-02-16T10:07:31.734Z,21.50
2023-02-16T10:10:01.267Z,24.63
2023-02-16T10:12:38.659Z,23.17
2023-02-16T10:15:30.491Z,24.23
2023-02-16T10:18:34.124Z,24.02
2023-02-16T10:21:08.303Z,23.30
2023-02-16T10:23:52.570Z,25.80
2023-02-16T10:26:39.719Z,23.73
2023-02-16T10:29:23.391Z,22.05
2023-02-16T10:31:58.968Z,22.60
2023-02-16T10:34:49.533Z,21.77
2023-02-16T10:37:52.728Z,25.25
2023-02-16T10:40:38.700Z,22.17
2023-02-16T10:43:25.444Z,21.80
2023-02-16T10:45:56.330Z,24.58
2023-02-16T10:48:24.320Z,22.50
2023-02-16T10:51:06.412Z,24.17
2023-02-16T10:53:42.352Z,22.65
2023-02-16T10:57:01.162Z,24.50
2023-02-16T10:59:38.696Z,24.88
2023-02-16T11:02:46.555Z,24.75
2023-02-16T11:05:31.177Z,20.92
2023-02-16T11:08:03.382Z,22.63
2023-02-16T11:10:54.206Z,26.23
2023-02-16T11:13:35.104Z,23.35
2023-02-16T11:16:19.410Z,23.77
2023-02-16T11:19:03.770Z,23.42
2023-02-16T11:21:56.069Z,27.02
2023-02-16T11:24:36.981Z,20.17
2023-02-16T11:27:13.817Z,24.05
2023-02-16T11:29:41.717Z,22.42
2023-02-16T11:32:14.838Z,25.20
2023-02-16T11:34:49.970Z,26.00
2023-02-16T11:37:33.172Z,23.88
2023-02-16T11:40:07.478Z,25.05
2023-02-16T11:42:41.915Z,23.35
2023-02-16T11:45:22.953Z,23.77
2023-02-16T11:48:14.371Z,23.48
2023-02-16T11:51:09.116Z,26.13
2023-02-16T11:53:42.764Z,24.95
2023-02-16T11:56:22.977Z,22.52
2023-02-16T12:01:42.934Z,26.98
2023-02-16T12:04:40.521Z,32.30
2023-02-16T12:07:23.177Z,37.30
2023-02-16T12:10:04.644Z,29.58
2023-02-16T12:13:24.852Z,36.70
2023-02-16T12:16:24.215Z,33.55
2023-02-16T12:19:39.526Z,33.35
2023-02-16T12:22:49.391Z,34.03
2023-02-16T12:25:20.002Z,32.88
2023-02-16T12:27:59.297Z,36.58
2023-02-16T12:30:37.056Z,32.88
2023-02-16T12:33:35.391Z,31.95
2023-02-16T12:36:24.165Z,32.47
2023-02-16T12:39:03.918Z,31.45
2023-02-16T12:41:43.893Z,36.25
2023-02-16T12:44:24.841Z,34.55
2023-02-16T12:47:05.589Z,34.60
2023-02-16T12:49:48.808Z,35.10
2023-02-16T12:52:50.928Z,34.92
2023-02-16T12:55:39.710Z,41.15
2023-02-16T12:58:37.590Z,39.00
2023-02-16T13:01:31.386Z,35.13
2023-02-16T13:04:16.719Z,35.90
2023-02-16T13:07:09.587Z,37.55
2023-02-16T13:10:19.105Z,36.15
2023-02-16T13:13:04.483Z,32.20
2023-02-16T13:15:43.699Z,35.05
2023-02-16T13:18:22.103Z,36.17
2023-02-16T13:20:59.304Z,30.42
2023-02-16T13:23:38.533Z,35.45
2023-02-16T13:26:19.846Z,39.88
2023-02-16T13:29:32.475Z,34.45
2023-02-16T13:32:30.174Z,28.48
2023-02-16T13:35:17.936Z,34.42
2023-02-16T13:38:23.829Z,29.50
2023-02-16T13:41:33.827Z,26.90
2023-02-16T13:44:28.372Z,22.77
2023-02-16T13:46:56.480Z,24.48
2023-02-16T13:49:44.014Z,25.02
2023-02-16T13:52:42.460Z,24.50
2023-02-16T13:55:25.100Z,24.13
2023-02-16T13:58:01.887Z,23.10
2023-02-16T14:00:42.297Z,25.30
2023-02-16T14:03:38.415Z,27.67
2023-02-16T14:06:32.537Z,23.25
2023-02-16T14:09:15.556Z,24.50
2023-02-16T14:11:54.769Z,30.95
2023-02-16T14:14:38.744Z,22.58
2023-02-16T14:17:18.449Z,18.17
2023-02-16T14:20:13.357Z,21.60
2023-02-16T14:22:52.041Z,21.13
2023-02-16T14:25:24.756Z,18.25
2023-02-16T14:27:56.850Z,18.60
2023-02-16T14:30:58.372Z,19.95
2023-02-16T14:33:52.575Z,17.90
2023-02-16T14:36:26.282Z,19.42
2023-02-16T14:39:00.219Z,23.80
2023-02-16T14:41:34.434Z,19.48
2023-02-16T14:44:04.607Z,17.73
2023-02-16T14:46:41.236Z,17.67
2023-02-16T14:49:45.511Z,17.73
2023-02-16T14:52:47.586Z,20.15
2023-02-16T14:55:40.914Z,108.15
2023-02-16T14:58:47.840Z,30.25
2023-02-16T15:01:18.484Z,82.00
2023-02-16T15:06:36.588Z,19.63
2023-02-16T15:09:18.677Z,18.73
2023-02-16T15:12:23.723Z,19.27
2023-02-16T15:15:19.685Z,21.58
2023-02-16T15:17:51.430Z,18.20
2023-02-16T15:20:31.410Z,17.30
2023-02-16T15:23:08.033Z,20.10
2023-02-16T15:25:40.893Z,21.80
2023-02-16T15:28:11.089Z,18.73
2023-02-16T15:30:43.098Z,18.30
2023-02-16T15:33:32.639Z,21.08
2023-02-16T15:36:13.537Z,23.15
2023-02-16T15:38:57.748Z,20.77
2023-02-16T15:41:42.004Z,20.17
2023-02-16T15:44:37.001Z,16.00
2023-02-16T15:47:23.338Z,22.92
2023-02-16T15:49:51.715Z,24.42
2023-02-16T15:52:33.738Z,19.92
2023-02-16T15:55:04.892Z,21.15
2023-02-16T15:57:38.125Z,22.00
2023-02-16T16:00:23.520Z,24.20
2023-02-16T16:02:55.730Z,24.98
2023-02-16T16:05:28.715Z,21.85
2023-02-16T16:07:58.430Z,24.58
2023-02-16T16:10:41.357Z,29.05
2023-02-16T16:13:30.944Z,26.77
2023-02-16T16:16:02.235Z,23.88
2023-02-16T16:18:52.809Z,24.23
2023-02-16T16:21:27.039Z,25.77
2023-02-16T16:24:01.079Z,29.30
2023-02-16T16:26:33.680Z,23.08
2023-02-16T16:29:01.987Z,27.55
2023-02-16T16:31:29.096Z,25.55
2023-02-16T16:34:09.998Z,23.83
2023-02-16T16:36:57.264Z,25.35
2023-02-16T16:39:29.697Z,22.63
2023-02-16T16:42:27.022Z,25.45
2023-02-16T16:45:00.973Z,23.45
2023-02-16T16:47:33.622Z,21.80
2023-02-16T16:50:11.723Z,24.05
2023-02-16T16:52:47.156Z,28.40
2023-02-16T16:55:34.687Z,24.63
2023-02-16T16:58:08.204Z,23.05
2023-02-16T17:00:41.212Z,25.27
2023-02-16T17:03:13.543Z,22.48
2023-02-16T17:05:41.666Z,24.00
2023-02-16T17:08:10.039Z,22.13
2023-02-16T17:10:41.534Z,25.05
2023-02-16T17:13:20.130Z,27.48
2023-02-16T17:16:02.717Z,24.80
2023-02-16T17:18:30.436Z,23.63
2023-02-16T17:20:57.699Z,21.67
2023-02-16T17:23:26.412Z,21.02
2023-02-16T17:25:53.782Z,25.45
2023-02-16T17:28:21.242Z,23.75
2023-02-16T17:30:48.955Z,25.75
2023-02-16T17:33:16.266Z,26.90
2023-02-16T17:35:43.973Z,24.98
2023-02-16T17:38:20.238Z,26.48
2023-02-16T17:40:53.089Z,23.50
2023-02-16T17:43:22.693Z,25.35
2023-02-16T17:45:51.061Z,21.85
2023-02-16T17:48:30.295Z,24.45
2023-02-16T17:51:00.897Z,25.73
2023-02-16T17:53:28.964Z,25.10
2023-02-16T17:55:58.439Z,23.00
2023-02-16T17:58:26.278Z,27.23
2023-02-16T18:00:53.713Z,22.17
2023-02-16T18:03:23.045Z,26.80
2023-02-16T18:05:50.397Z,23.83
2023-02-16T18:08:17.915Z,23.08
2023-02-16T18:10:49.008Z,21.48
2023-02-16T18:13:17.064Z,23.92
2023-02-16T18:15:47.755Z,24.15
2023-02-16T18:18:17.444Z,23.30
2023-02-16T18:20:45.716Z,26.47
2023-02-16T18:23:13.454Z,26.70
2023-02-16T18:25:43.178Z,28.60
2023-02-16T18:28:20.410Z,23.13
2023-02-16T18:30:49.290Z,25.80
2023-02-16T18:33:21.358Z,22.20
2023-02-16T18:35:52.117Z,25.10
2023-02-16T18:38:21.811Z,25.23
2023-02-16T18:40:49.875Z,29.88
2023-02-16T18:43:17.254Z,24.45
2023-02-16T18:45:44.608Z,23.30
2023-02-16T18:48:12.306Z,23.20
2023-02-16T18:50:40.170Z,27.92
2023-02-16T18:53:07.598Z,28.08
2023-02-16T18:55:35.791Z,26.83
2023-02-16T18:58:08.133Z,25.40
2023-02-16T19:00:37.214Z,28.33
2023-02-16T19:03:05.182Z,24.48
2023-02-16T19:05:33.346Z,24.52
2023-02-16T19:08:00.695Z,22.58
2023-02-16T19:10:28.081Z,26.10
2023-02-16T19:12:55.464Z,27.45
2023-02-16T19:15:23.054Z,29.05
2023-02-16T19:17:50.360Z,29.05
2023-02-16T19:20:18.763Z,26.88
2023-02-16T19:22:47.690Z,26.15
2023-02-16T19:25:15.569Z,28.27
2023-02-16T19:27:44.754Z,26.83
2023-02-16T19:30:13.086Z,28.88
2023-02-16T19:32:41.321Z,28.17
2023-02-16T19:35:10.842Z,25.15
2023-02-16T19:37:38.665Z,28.13
2023-02-16T19:40:08.762Z,31.35
2023-02-16T19:42:36.523Z,30.85
2023-02-16T19:45:04.234Z,30.40
2023-02-16T19:47:31.776Z,29.30
2023-02-16T19:49:59.010Z,31.23
2023-02-16T19:52:26.396Z,37.30
2023-02-16T19:54:53.846Z,28.13
2023-02-16T19:57:21.590Z,35.10
2023-02-16T19:59:48.903Z,33.60
2023-02-16T20:02:16.620Z,29.13
2023-02-16T20:04:45.097Z,30.83
2023-02-16T20:07:12.488Z,30.67
2023-02-16T20:09:39.973Z,29.13
2023-02-16T20:12:07.997Z,30.08
2023-02-16T20:14:35.468Z,30.95
2023-02-16T20:17:02.738Z,33.38
2023-02-16T20:19:30.185Z,30.02
2023-02-16T20:21:57.883Z,34.22
2023-02-16T20:24:25.215Z,35.95
2023-02-16T20:26:52.476Z,35.40
2023-02-16T20:29:21.003Z,33.53
2023-02-16T20:31:55.622Z,41.00
2023-02-16T20:34:26.424Z,37.17
2023-02-16T20:36:54.767Z,42.95
2023-02-16T20:39:23.089Z,38.53
2023-02-16T20:41:50.889Z,38.60
2023-02-16T20:44:18.152Z,41.03
2023-02-16T20:46:45.502Z,41.72
2023-02-16T20:49:13.654Z,38.30
2023-02-16T20:51:41.497Z,40.00
2023-02-16T20:54:09.452Z,41.53
2023-02-16T20:56:37.099Z,43.67
2023-02-16T20:59:05.135Z,42.60
2023-02-16T21:01:40.623Z,42.33
2023-02-16T21:04:08.484Z,44.60
2023-02-16T21:06:36.957Z,43.15
2023-02-16T21:09:07.239Z,39.67
2023-02-16T21:11:35.839Z,42.33
2023-02-16T21:14:07.131Z,42.92
2023-02-16T21:16:35.970Z,44.08
2023-02-16T21:19:09.298Z,46.42
2023-02-16T21:21:44.567Z,40.88
2023-02-16T21:24:11.970Z,44.35
2023-02-16T21:26:39.309Z,42.42
2023-02-16T21:29:06.531Z,41.75
2023-02-16T21:31:33.919Z,39.58
2023-02-16T21:34:01.305Z,39.13
2023-02-16T21:36:28.706Z,40.42
2023-02-16T21:38:56.591Z,36.28
2023-02-16T21:41:30.135Z,43.90
2023-02-16T21:43:59.664Z,38.95
2023-02-16T21:46:36.605Z,38.10
2023-02-16T21:49:09.544Z,46.17
2023-02-16T21:51:40.177Z,39.58
2023-02-16T21:54:11.785Z,42.22
2023-02-16T21:56:48.669Z,41.63
2023-02-16T21:59:18.258Z,41.55
2023-02-16T22:01:51.260Z,39.55
2023-02-16T22:04:22.825Z,33.13
2023-02-16T22:06:51.779Z,37.03
2023-02-16T22:09:22.583Z,32.53
2023-02-16T22:14:18.368Z,31.10
2023-02-16T22:16:47.640Z,36.50
2023-02-16T22:19:18.399Z,37.78
2023-02-16T22:21:47.859Z,34.80
2023-02-16T22:24:17.215Z,30.05
2023-02-16T22:26:46.566Z,36.15
2023-02-16T22:29:14.186Z,36.90
2023-02-16T22:31:47.090Z,31.30
2023-02-16T22:34:18.982Z,32.13
2023-02-16T22:36:46.293Z,30.67
2023-02-16T22:39:15.940Z,32.22
2023-02-16T22:41:43.648Z,35.15
2023-02-16T22:44:12.338Z,39.67
2023-02-16T22:46:39.650Z,33.25
2023-02-16T22:49:06.866Z,42.53
2023-02-16T22:51:34.193Z,35.28
2023-02-16T22:54:02.380Z,33.30
2023-02-16T22:56:30.898Z,32.90
2023-02-16T22:59:00.197Z,40.40
2023-02-16T23:01:31.051Z,43.88
2023-02-16T23:04:01.133Z,41.38
2023-02-16T23:06:35.200Z,36.38
2023-02-16T23:09:22.085Z,38.78
2023-02-16T23:11:50.542Z,41.03
2023-02-16T23:14:19.613Z,33.33
2023-02-16T23:16:54.784Z,31.42
2023-02-16T23:19:26.595Z,27.92
2023-02-16T23:21:54.685Z,33.05
2023-02-16T23:24:23.988Z,34.78
2023-02-16T23:26:52.451Z,34.95
2023-02-16T23:29:21.098Z,33.38
2023-02-16T23:31:49.049Z,34.63
2023-02-16T23:34:17.144Z,37.65
2023-02-16T23:36:46.226Z,31.17
2023-02-16T23:39:16.973Z,31.90
2023-02-16T23:44:14.250Z,32.03
2023-02-16T23:46:41.887Z,37.28
2023-02-16T23:49:09.181Z,32.55
2023-02-16T23:51:36.573Z,38.97
2023-02-16T23:54:04.035Z,48.40
2023-02-16T23:56:31.277Z,46.42
2023-02-16T23:59:00.692Z,42.05
